createdAt,value
2023-01-25T00:00:51.676Z,0.44
2023-01-25T00:03:18.847Z,0.42
2023-01-25T00:05:46.039Z,0.34
2023-01-25T00:08:13.332Z,0.33
2023-01-25T00:10:40.383Z,0.41
2023-01-25T00:13:08.260Z,0.44
2023-01-25T00:15:38.307Z,0.41
2023-01-25T00:18:06.086Z,0.41
2023-01-25T00:20:33.299Z,0.30
2023-01-25T00:23:01.161Z,0.34
2023-01-25T00:25:28.741Z,0.34
2023-01-25T00:28:03.940Z,0.34
2023-01-25T00:30:31.141Z,0.25
2023-01-25T00:33:17.528Z,0.36
2023-01-25T00:35:45.591Z,0.27
2023-01-25T00:38:35.729Z,0.28
2023-01-25T00:41:03.327Z,0.31
2023-01-25T00:43:32.665Z,0.32
2023-01-25T00:46:06.343Z,0.34
2023-01-25T00:48:33.587Z,0.34
2023-01-25T00:51:03.480Z,0.34
2023-01-25T00:53:32.118Z,0.36
2023-01-25T00:55:59.269Z,0.34
2023-01-25T00:58:30.374Z,0.35
2023-01-25T01:00:57.861Z,0.35
2023-01-25T01:03:25.830Z,0.36
2023-01-25T01:06:10.057Z,0.37
2023-01-25T01:08:42.179Z,0.25
2023-01-25T01:11:12.546Z,0.25
2023-01-25T01:13:40.935Z,0.19
2023-01-25T01:16:12.069Z,0.22
2023-01-25T01:18:42.487Z,0.25
2023-01-25T01:21:10.782Z,0.28
2023-01-25T01:23:48.281Z,0.31
2023-01-25T01:26:19.776Z,0.35
2023-01-25T01:28:48.490Z,0.36
2023-01-25T01:31:21.459Z,0.42
2023-01-25T01:34:06.787Z,0.41
2023-01-25T01:36:35.542Z,0.36
2023-01-25T01:39:02.650Z,0.37
2023-01-25T01:41:30.404Z,0.36
2023-01-25T01:43:57.846Z,0.37
2023-01-25T01:46:37.798Z,0.38
2023-01-25T01:49:27.846Z,0.43
2023-01-25T01:52:11.395Z,0.40
2023-01-25T01:55:01.544Z,0.44
2023-01-25T01:57:38.915Z,0.30
2023-01-25T02:00:21.306Z,0.34
2023-01-25T02:02:53.159Z,0.36
2023-01-25T02:05:26.888Z,0.40
2023-01-25T02:08:02.402Z,0.41
2023-01-25T02:10:36.415Z,0.38
2023-01-25T02:13:09.115Z,0.32
2023-01-25T02:15:44.605Z,0.28
2023-01-25T02:18:17.802Z,0.31
2023-01-25T02:20:46.973Z,0.33
2023-01-25T02:23:36.764Z,0.41
2023-01-25T02:26:06.134Z,0.32
2023-01-25T02:28:53.851Z,0.35
2023-01-25T02:31:24.149Z,0.38
2023-01-25T02:33:52.868Z,0.40
2023-01-25T02:36:28.746Z,0.37
2023-01-25T02:39:06.040Z,0.36
2023-01-25T02:41:36.076Z,0.39
2023-01-25T02:44:13.517Z,0.45
2023-01-25T02:46:45.612Z,0.38
2023-01-25T02:49:13.889Z,0.39
2023-01-25T02:51:45.439Z,0.36
2023-01-25T02:54:13.976Z,0.38
2023-01-25T02:56:44.168Z,0.35
2023-01-25T02:59:13.582Z,0.38
2023-01-25T03:01:52.270Z,0.34
2023-01-25T03:04:19.729Z,0.38
2023-01-25T03:06:48.452Z,0.41
2023-01-25T03:09:17.134Z,0.49
2023-01-25T03:12:14.212Z,0.50
2023-01-25T03:14:47.745Z,0.47
2023-01-25T03:17:16.376Z,0.46
2023-01-25T03:19:44.201Z,0.49
2023-01-25T03:22:12.694Z,0.49
2023-01-25T03:24:41.344Z,0.51
2023-01-25T03:27:28.100Z,0.56
2023-01-25T03:30:04.394Z,0.47
2023-01-25T03:32:35.800Z,0.47
2023-01-25T03:35:09.116Z,0.39
2023-01-25T03:37:37.457Z,0.35
2023-01-25T03:40:05.859Z,0.42
2023-01-25T03:42:37.025Z,0.49
2023-01-25T03:45:05.451Z,0.44
2023-01-25T03:47:33.272Z,0.43
2023-01-25T03:50:00.499Z,0.40
2023-01-25T03:52:45.837Z,0.43
2023-01-25T03:55:16.115Z,0.44
2023-01-25T03:57:49.769Z,0.46
2023-01-25T04:00:25.123Z,0.48
2023-01-25T04:03:02.895Z,0.53
2023-01-25T04:05:35.142Z,0.42
2023-01-25T04:08:03.373Z,0.35
2023-01-25T04:10:39.418Z,0.42
2023-01-25T04:13:10.824Z,0.48
2023-01-25T04:15:38.888Z,0.52
2023-01-25T04:18:18.159Z,0.47
2023-01-25T04:20:46.900Z,0.47
2023-01-25T04:23:15.026Z,0.43
2023-01-25T04:25:47.862Z,0.43
2023-01-25T04:28:17.028Z,0.44
2023-01-25T04:30:47.617Z,0.45
2023-01-25T04:33:16.660Z,0.45
2023-01-25T04:35:45.889Z,0.38
2023-01-25T04:38:24.274Z,0.39
2023-01-25T04:40:53.003Z,0.44
2023-01-25T04:43:27.155Z,0.47
2023-01-25T04:46:02.857Z,0.48
2023-01-25T04:48:34.789Z,0.49
2023-01-25T04:51:05.603Z,0.48
2023-01-25T06:03:20.809Z,0.20
2023-01-25T06:05:47.599Z,0.14
2023-01-25T06:08:14.831Z,0.10
2023-01-25T06:10:44.653Z,0.14
2023-01-25T06:13:12.444Z,0.18
2023-01-25T06:15:39.135Z,0.22
2023-01-25T06:18:26.772Z,0.27
2023-01-25T06:21:16.543Z,0.32
2023-01-25T06:23:45.229Z,0.36
2023-01-25T06:26:14.605Z,0.36
2023-01-25T06:28:41.793Z,0.33
2023-01-25T06:31:14.818Z,0.37
2023-01-25T06:33:43.739Z,0.37
2023-01-25T06:36:13.587Z,0.33
2023-01-25T06:38:41.014Z,0.36
2023-01-25T06:41:12.163Z,0.41
2023-01-25T06:43:39.353Z,0.42
2023-01-25T06:46:08.822Z,0.42
2023-01-25T06:48:35.836Z,0.43
2023-01-25T06:51:05.873Z,0.44
2023-01-25T06:53:33.347Z,0.44
2023-01-25T06:56:12.927Z,0.41
2023-01-25T06:58:39.828Z,0.43
2023-01-25T07:01:30.769Z,0.42
2023-01-25T07:03:59.003Z,0.39
2023-01-25T07:06:31.809Z,0.39
2023-01-25T07:09:05.981Z,0.40
2023-01-25T07:11:33.696Z,0.34
2023-01-25T07:14:00.374Z,0.36
2023-01-25T07:16:27.625Z,0.36
2023-01-25T07:19:09.753Z,0.39
2023-01-25T07:21:37.669Z,0.43
2023-01-25T07:24:06.403Z,0.51
2023-01-25T07:26:34.258Z,0.51
2023-01-25T07:29:01.427Z,0.43
2023-01-25T07:31:30.104Z,0.43
2023-01-25T07:33:59.849Z,0.35
2023-01-25T07:36:27.716Z,0.36
2023-01-25T07:38:56.192Z,0.43
2023-01-25T07:41:26.365Z,0.42
2023-01-25T07:43:54.528Z,0.33
2023-01-25T07:46:33.489Z,0.36
2023-01-25T07:49:00.742Z,0.33
2023-01-25T07:51:31.971Z,0.37
2023-01-25T07:54:02.267Z,0.41
2023-01-25T07:56:33.203Z,0.44
2023-01-25T07:59:05.332Z,0.42
2023-01-25T08:01:34.765Z,0.42
2023-01-25T08:04:02.168Z,0.42
2023-01-25T08:06:36.166Z,0.42
2023-01-25T08:09:10.513Z,0.44
2023-01-25T08:11:38.227Z,0.45
2023-01-25T08:14:04.870Z,0.46
2023-01-25T08:16:31.906Z,0.47
2023-01-25T08:19:01.340Z,0.46
2023-01-25T08:21:31.604Z,0.45
2023-01-25T08:24:01.050Z,0.38
2023-01-25T08:26:31.171Z,0.33
2023-01-25T08:28:58.631Z,0.30
2023-01-25T08:31:28.419Z,0.26
2023-01-25T08:33:56.401Z,0.26
2023-01-25T08:36:27.964Z,0.30
2023-01-25T08:39:00.346Z,0.29
2023-01-25T08:41:28.676Z,0.31
2023-01-25T08:43:57.791Z,0.29
2023-01-25T08:46:29.381Z,0.30
2023-01-25T08:48:59.984Z,0.32
2023-01-25T08:51:26.923Z,0.31
2023-01-25T08:53:54.155Z,0.36
2023-01-25T08:56:21.337Z,0.36
2023-01-25T08:58:49.881Z,0.29
2023-01-25T09:01:19.051Z,0.30
2023-01-25T09:03:48.410Z,0.38
2023-01-25T09:06:16.028Z,0.43
2023-01-25T09:08:43.631Z,0.44
2023-01-25T09:11:16.142Z,0.40
2023-01-25T09:13:43.969Z,0.38
2023-01-25T09:16:13.764Z,0.36
2023-01-25T09:18:42.672Z,0.36
2023-01-25T09:21:14.662Z,0.39
2023-01-25T09:23:51.129Z,0.38
2023-01-25T09:26:32.578Z,0.38
2023-01-25T09:28:59.946Z,0.40
2023-01-25T09:31:29.546Z,0.40
2023-01-25T09:34:10.306Z,0.38
2023-01-25T09:36:37.982Z,0.33
2023-01-25T09:39:05.378Z,0.34
2023-01-25T09:42:00.728Z,0.23
2023-01-25T09:44:37.522Z,0.26
2023-01-25T09:47:25.850Z,0.35
2023-01-25T09:50:06.721Z,0.27
2023-01-25T09:53:04.605Z,0.20
2023-01-25T09:55:33.538Z,0.28
2023-01-25T09:58:02.614Z,0.33
2023-01-25T10:00:45.500Z,0.31
2023-01-25T10:03:16.975Z,0.32
2023-01-25T10:05:47.311Z,0.33
2023-01-25T10:08:26.592Z,0.21
2023-01-25T10:11:04.707Z,0.02
2023-01-25T10:13:32.114Z,-0.02
2023-01-25T10:16:05.227Z,-0.13
2023-01-25T10:18:39.597Z,-0.13
2023-01-25T10:21:13.275Z,-0.20
2023-01-25T10:23:43.465Z,-0.13
2023-01-25T10:26:27.266Z,-0.16
2023-01-25T10:29:08.639Z,-0.01
2023-01-25T10:31:49.086Z,0.00
2023-01-25T10:34:31.562Z,0.11
2023-01-25T10:37:04.056Z,0.22
2023-01-25T10:39:33.176Z,0.25
2023-01-25T10:42:05.128Z,0.22
2023-01-25T10:44:32.825Z,0.22
2023-01-25T10:47:27.175Z,0.25
2023-01-25T10:49:56.961Z,0.29
2023-01-25T10:52:29.611Z,0.31
2023-01-25T10:55:17.218Z,0.26
2023-01-25T10:58:04.100Z,0.15
2023-01-25T11:00:37.005Z,0.21
2023-01-25T11:03:04.697Z,0.26
2023-01-25T11:05:36.519Z,0.30
2023-01-25T11:08:25.966Z,0.26
2023-01-25T11:10:54.294Z,0.30
2023-01-25T11:13:24.759Z,0.24
2023-01-25T11:15:58.115Z,0.12
2023-01-25T11:18:35.979Z,0.03
2023-01-25T11:21:19.460Z,-0.15
2023-01-25T11:24:09.458Z,-0.01
2023-01-25T11:26:38.862Z,0.06
2023-01-25T11:29:08.842Z,0.13
2023-01-25T11:31:35.696Z,0.08
2023-01-25T11:34:02.877Z,0.03
2023-01-25T11:36:41.679Z,0.07
2023-01-25T11:39:59.192Z,0.08
2023-01-25T11:42:45.775Z,0.12
2023-01-25T11:45:28.362Z,-0.01
2023-01-25T11:48:06.958Z,-0.02
2023-01-25T11:50:47.467Z,0.05
2023-01-25T11:53:55.763Z,0.10
2023-01-25T11:56:47.649Z,0.12
2023-01-25T11:59:53.410Z,0.16
2023-01-25T12:02:54.005Z,0.15
2023-01-25T12:05:39.474Z,0.06
2023-01-25T12:08:21.661Z,-0.01
2023-01-25T12:10:51.868Z,-0.13
2023-01-25T12:13:41.010Z,-0.25
2023-01-25T12:16:31.376Z,-0.22
2023-01-25T12:19:11.738Z,-0.12
2023-01-25T12:21:50.651Z,-0.03
2023-01-25T12:24:37.459Z,-0.04
2023-01-25T12:27:10.585Z,-0.05
2023-01-25T12:29:55.966Z,-0.05
2023-01-25T12:32:39.929Z,-0.12
2023-01-25T12:35:30.525Z,-0.09
2023-01-25T12:38:04.889Z,-0.09
2023-01-25T12:40:59.219Z,-0.23
2023-01-25T12:43:39.059Z,-0.30
2023-01-25T12:46:21.537Z,-0.36
2023-01-25T12:48:53.981Z,-0.35
2023-01-25T12:51:22.429Z,-0.27
2023-01-25T12:53:52.500Z,-0.21
2023-01-25T12:56:55.109Z,-0.24
2023-01-25T12:59:37.694Z,-0.28
2023-01-25T13:02:22.617Z,-0.32
2023-01-25T13:05:03.052Z,-0.33
2023-01-25T13:07:41.894Z,-0.40
2023-01-25T13:10:27.112Z,-0.41
2023-01-25T13:12:56.975Z,-0.43
2023-01-25T13:15:35.629Z,-0.50
2023-01-25T13:18:28.751Z,-0.39
2023-01-25T13:20:56.157Z,-0.53
2023-01-25T13:23:50.984Z,-0.59
2023-01-25T13:26:29.363Z,-0.59
2023-01-25T13:28:59.741Z,-0.71
2023-01-25T13:31:52.158Z,-0.67
2023-01-25T13:34:34.876Z,-0.67
2023-01-25T13:37:25.076Z,-0.57
2023-01-25T13:39:58.101Z,-0.75
2023-01-25T13:42:36.608Z,-0.89
2023-01-25T13:45:18.713Z,-0.89
2023-01-25T13:48:03.530Z,-0.70
2023-01-25T13:50:34.281Z,-0.64
2023-01-25T13:53:03.692Z,-0.67
2023-01-25T13:55:46.368Z,-0.61
2023-01-25T13:58:20.185Z,-0.57
2023-01-25T14:00:55.960Z,-0.55
2023-01-25T14:03:29.283Z,-0.55
2023-01-25T14:05:58.707Z,-0.50
2023-01-25T14:08:26.772Z,-0.51
2023-01-25T14:10:54.492Z,-0.78
2023-01-25T14:13:21.762Z,-0.74
2023-01-25T14:15:58.026Z,-0.75
2023-01-25T14:18:34.171Z,-0.64
2023-01-25T14:21:17.289Z,-0.65
2023-01-25T14:23:45.472Z,-0.63
2023-01-25T14:26:19.178Z,-0.65
2023-01-25T14:28:59.628Z,-0.55
2023-01-25T14:31:34.376Z,-0.50
2023-01-25T14:34:04.418Z,-0.59
2023-01-25T14:36:34.425Z,-0.64
2023-01-25T14:39:04.463Z,-0.70
2023-01-25T14:41:38.882Z,-0.71
2023-01-25T14:44:14.211Z,-0.74
2023-01-25T14:46:41.455Z,-0.79
2023-01-25T14:49:27.413Z,-0.78
2023-01-25T14:52:05.642Z,-0.70
2023-01-25T14:54:37.718Z,-0.67
2023-01-25T14:57:06.877Z,-0.69
2023-01-25T14:59:47.752Z,-0.69
2023-01-25T15:02:45.870Z,-0.79
2023-01-25T15:05:16.186Z,-0.85
2023-01-25T15:07:48.167Z,-0.84
2023-01-25T15:10:22.925Z,-0.81
2023-01-25T15:13:18.062Z,-0.78
2023-01-25T15:15:59.749Z,-0.73
2023-01-25T15:18:42.253Z,-0.80
2023-01-25T15:21:14.634Z,-0.98
2023-01-25T15:23:43.527Z,-1.20
2023-01-25T15:26:19.137Z,-1.27
2023-01-25T15:28:47.184Z,-1.44
2023-01-25T15:31:33.884Z,-1.39
2023-01-25T15:34:02.137Z,-1.29
2023-01-25T15:36:30.096Z,-1.38
2023-01-25T15:38:57.520Z,-1.41
2023-01-25T15:41:24.316Z,-1.34
2023-01-25T15:43:52.459Z,-1.24
2023-01-25T15:46:21.782Z,-1.14
2023-01-25T15:48:49.891Z,-1.12
2023-01-25T15:51:17.002Z,-1.20
2023-01-25T15:53:43.681Z,-1.16
2023-01-25T15:56:15.727Z,-1.13
2023-01-25T15:58:46.333Z,-1.08
2023-01-25T16:01:13.774Z,-1.08
2023-01-25T16:03:41.840Z,-1.09
2023-01-25T16:06:25.634Z,-1.14
2023-01-25T16:08:52.802Z,-1.29
2023-01-25T16:11:19.583Z,-1.28
2023-01-25T16:13:46.323Z,-1.24
2023-01-25T16:16:24.008Z,-1.14
2023-01-25T16:18:52.276Z,-1.07
2023-01-25T16:21:18.951Z,-1.13
2023-01-25T16:23:45.733Z,-1.20
2023-01-25T16:26:25.590Z,-1.13
2023-01-25T16:28:52.927Z,-1.04
2023-01-25T16:31:31.973Z,-0.99
2023-01-25T16:34:00.874Z,-1.01
2023-01-25T16:36:27.733Z,-1.02
2023-01-25T16:38:54.998Z,-1.09
2023-01-25T16:41:21.748Z,-0.99
2023-01-25T16:43:49.936Z,-0.97
2023-01-25T16:46:19.010Z,-1.01
2023-01-25T16:48:48.443Z,-0.99
2023-01-25T16:51:20.810Z,-0.99
2023-01-25T16:53:49.980Z,-0.98
2023-01-25T16:56:22.209Z,-1.03
2023-01-25T16:58:50.811Z,-1.02
2023-01-25T17:01:19.519Z,-1.03
2023-01-25T17:03:47.391Z,-1.13
2023-01-25T17:06:18.837Z,-1.16
2023-01-25T17:08:47.699Z,-1.12
2023-01-25T17:11:14.445Z,-1.13
2023-01-25T17:13:41.384Z,-1.05
2023-01-25T17:16:08.390Z,-1.06
2023-01-25T17:18:35.319Z,-1.03
2023-01-25T17:21:06.220Z,-1.02
2023-01-25T17:23:37.837Z,-1.00
2023-01-25T17:26:10.250Z,-1.00
2023-01-25T17:28:37.465Z,-1.01
2023-01-25T17:31:04.524Z,-1.09
2023-01-25T17:33:32.451Z,-1.11
2023-01-25T17:36:02.749Z,-1.16
2023-01-25T17:38:30.258Z,-1.15
2023-01-25T17:40:56.810Z,-1.12
2023-01-25T17:43:24.121Z,-1.10
2023-01-25T17:45:52.160Z,-1.08
2023-01-25T17:48:22.574Z,-1.06
2023-01-25T17:51:00.854Z,-1.13
2023-01-25T17:53:28.254Z,-1.24
2023-01-25T17:55:55.407Z,-1.22
2023-01-25T17:58:22.865Z,-1.17
2023-01-25T18:00:49.432Z,-1.17
2023-01-25T18:03:16.744Z,-1.13
2023-01-25T18:05:45.147Z,-1.12
2023-01-25T18:08:12.789Z,-1.15
2023-01-25T18:10:40.545Z,-1.18
2023-01-25T18:13:08.007Z,-1.22
2023-01-25T18:15:34.646Z,-1.31
2023-01-25T18:18:02.085Z,-1.33
2023-01-25T18:20:30.091Z,-1.38
2023-01-25T18:22:58.487Z,-1.35
2023-01-25T18:25:34.318Z,-1.39
2023-01-25T18:28:01.969Z,-1.41
2023-01-25T18:30:37.216Z,-1.33
2023-01-25T18:33:05.852Z,-1.26
2023-01-25T18:35:32.702Z,-1.23
2023-01-25T18:38:00.168Z,-1.24
2023-01-25T18:40:26.820Z,-1.32
2023-01-25T18:42:54.113Z,-1.32
2023-01-25T18:45:20.835Z,-1.30
2023-01-25T18:47:48.099Z,-1.28
2023-01-25T18:50:16.164Z,-1.27
2023-01-25T18:52:44.541Z,-1.34
2023-01-25T18:55:12.311Z,-1.38
2023-01-25T18:57:39.891Z,-1.50
2023-01-25T19:00:07.366Z,-1.53
2023-01-25T19:02:34.461Z,-1.55
2023-01-25T19:05:01.023Z,-1.64
2023-01-25T19:07:27.883Z,-1.55
2023-01-25T19:09:54.521Z,-1.51
2023-01-25T19:12:21.741Z,-1.45
2023-01-25T19:14:48.320Z,-1.46
2023-01-25T19:17:15.503Z,-1.51
2023-01-25T19:19:43.949Z,-1.62
2023-01-25T19:22:11.241Z,-1.56
2023-01-25T19:24:37.867Z,-1.58
2023-01-25T19:27:05.095Z,-1.63
2023-01-25T19:29:31.640Z,-1.55
2023-01-25T19:31:58.953Z,-1.48
2023-01-25T19:34:25.653Z,-1.50
2023-01-25T19:36:54.106Z,-1.47
2023-01-25T19:39:20.671Z,-1.43
2023-01-25T19:41:47.573Z,-1.41
2023-01-25T19:44:14.766Z,-1.42
2023-01-25T19:46:42.514Z,-1.45
2023-01-25T19:49:11.659Z,-1.45
2023-01-25T19:51:41.646Z,-1.41
2023-01-25T19:54:12.460Z,-1.40
2023-01-25T19:56:41.358Z,-1.42
2023-01-25T19:59:11.386Z,-1.44
2023-01-25T20:01:44.269Z,-1.48
2023-01-25T20:04:16.333Z,-1.48
2023-01-25T20:06:44.435Z,-1.46
2023-01-25T20:09:17.227Z,-1.47
2023-01-25T20:11:45.029Z,-1.56
2023-01-25T20:14:13.161Z,-1.55
2023-01-25T20:16:40.612Z,-1.60
2023-01-25T20:19:10.435Z,-1.58
2023-01-25T20:21:40.048Z,-1.59
2023-01-25T20:24:07.785Z,-1.78
2023-01-25T20:26:39.213Z,-1.69
2023-01-25T20:29:07.272Z,-1.68
2023-01-25T20:31:37.510Z,-1.70
2023-01-25T20:34:16.528Z,-1.66
2023-01-25T20:36:44.595Z,-1.79
2023-01-25T20:39:13.850Z,-1.74
2023-01-25T20:41:41.485Z,-1.74
2023-01-25T20:44:09.799Z,-1.73
2023-01-25T20:46:39.139Z,-1.64
2023-01-25T20:49:08.718Z,-1.62
2023-01-25T20:51:35.992Z,-1.56
2023-01-25T20:54:03.261Z,-1.48
2023-01-25T20:56:31.950Z,-1.48
2023-01-25T20:58:58.761Z,-1.48
2023-01-25T21:01:29.848Z,-1.47
2023-01-25T21:03:57.787Z,-1.47
2023-01-25T21:06:27.580Z,-1.46
2023-01-25T21:08:54.382Z,-1.47
2023-01-25T21:11:23.455Z,-1.46
2023-01-25T21:13:50.026Z,-1.45
2023-01-25T21:16:21.805Z,-1.44
2023-01-25T21:18:51.520Z,-1.47
2023-01-25T21:21:21.764Z,-1.50
2023-01-25T21:23:50.145Z,-1.51
2023-01-25T21:26:19.859Z,-1.51
2023-01-25T21:28:46.752Z,-1.51
